Silver Creek, Minnesota
Current Conditions -  °F | °C
As of 2:35 AM on Thursday 27 Nov 2014 (Local Time) from KMGG Reporting Station
Clear Clear  
Wind Chill: -12°   Ceiling: Unl
Heat Index:   Visibility: 10mi
Dew Point: -4°   Wind: 7mph
Humidity: 80%   Direction: 320°NW
Pressure: 30.49"   Gusts: NA
Location:  45.31°N, 93.98°W
Report Text: KMGG 270835Z AUTO 32006KT 10SM CLR M17/M20 A3049 RMK AO2 T11721199
Loading
Personal Weather Stations






























Interactive Weather Map New forecast layout! Learn more

10-Day Weather Forecast

Advertisements
Track Severe Weather on mobile